sensor_id;sensor_type;location;lat;lon;timestamp;pressure;altitude;pressure_sealevel;temperature;humidity
71772;BME280;59606;52.138;5.424;2023-04-06T00:01:54;101988.72;;;3.56;75.93
71772;BME280;59606;52.138;5.424;2023-04-06T00:04:21;101993.88;;;3.52;76.09
71772;BME280;59606;52.138;5.424;2023-04-06T00:06:47;101987.91;;;3.49;75.93
71772;BME280;59606;52.138;5.424;2023-04-06T00:09:14;101986.19;;;3.45;76.38
71772;BME280;59606;52.138;5.424;2023-04-06T00:11:40;101984.47;;;3.44;76.49
71772;BME280;59606;52.138;5.424;2023-04-06T00:14:08;101980.22;;;3.40;76.72
71772;BME280;59606;52.138;5.424;2023-04-06T00:16:35;101979.38;;;3.38;76.88
71772;BME280;59606;52.138;5.424;2023-04-06T00:19:02;101976.81;;;3.35;76.45
71772;BME280;59606;52.138;5.424;2023-04-06T00:21:28;101976.84;;;3.33;76.34
71772;BME280;59606;52.138;5.424;2023-04-06T00:23:55;101980.28;;;3.30;76.97
71772;BME280;59606;52.138;5.424;2023-04-06T00:26:21;101972.59;;;3.26;76.63
71772;BME280;59606;52.138;5.424;2023-04-06T00:28:48;101974.34;;;3.22;76.94
71772;BME280;59606;52.138;5.424;2023-04-06T00:31:16;101965.72;;;3.22;76.69
71772;BME280;59606;52.138;5.424;2023-04-06T00:33:42;101965.78;;;3.19;77.03
71772;BME280;59606;52.138;5.424;2023-04-06T00:36:09;101960.63;;;3.14;76.99
71772;BME280;59606;52.138;5.424;2023-04-06T00:38:36;101952.94;;;3.13;77.19
71772;BME280;59606;52.138;5.424;2023-04-06T00:41:03;101958.91;;;3.12;77.33
71772;BME280;59606;52.138;5.424;2023-04-06T00:43:32;101951.22;;;3.10;77.57
71772;BME280;59606;52.138;5.424;2023-04-06T00:45:59;101946.94;;;3.07;77.44
71772;BME280;59606;52.138;5.424;2023-04-06T00:48:25;101946.97;;;3.06;77.60
71772;BME280;59606;52.138;5.424;2023-04-06T00:50:52;101942.66;;;3.05;77.42
71772;BME280;59606;52.138;5.424;2023-04-06T00:53:18;101941.81;;;3.04;77.76
71772;BME280;59606;52.138;5.424;2023-04-06T00:55:45;101934.97;;;3.02;77.51
71772;BME280;59606;52.138;5.424;2023-04-06T00:58:11;101934.97;;;3.00;77.79
71772;BME280;59606;52.138;5.424;2023-04-06T01:00:38;101931.59;;;2.95;77.81
71772;BME280;59606;52.138;5.424;2023-04-06T01:03:04;101933.28;;;2.95;77.94
71772;BME280;59606;52.138;5.424;2023-04-06T01:05:34;101930.72;;;2.93;78.11
71772;BME280;59606;52.138;5.424;2023-04-06T01:08:03;101932.44;;;2.91;78.40
71772;BME280;59606;52.138;5.424;2023-04-06T01:10:30;101929.03;;;2.89;78.44
71772;BME280;59606;52.138;5.424;2023-04-06T01:12:56;101925.63;;;2.89;78.64
71772;BME280;59606;52.138;5.424;2023-04-06T01:15:23;101923.03;;;2.89;78.72
71772;BME280;59606;52.138;5.424;2023-04-06T01:17:51;101921.31;;;2.89;78.80
71772;BME280;59606;52.138;5.424;2023-04-06T01:20:17;101913.56;;;2.91;79.39
71772;BME280;59606;52.138;5.424;2023-04-06T01:22:44;101909.28;;;2.93;79.01
71772;BME280;59606;52.138;5.424;2023-04-06T01:25:10;101905.88;;;2.92;79.25
71772;BME280;59606;52.138;5.424;2023-04-06T01:27:37;101907.53;;;2.95;79.20
71772;BME280;59606;52.138;5.424;2023-04-06T01:30:04;101911.84;;;2.96;79.32
71772;BME280;59606;52.138;5.424;2023-04-06T01:32:31;101909.25;;;2.97;79.49
71772;BME280;59606;52.138;5.424;2023-04-06T01:34:58;101898.97;;;2.99;80.01
71772;BME280;59606;52.138;5.424;2023-04-06T01:37:24;101899.78;;;3.01;80.10
71772;BME280;59606;52.138;5.424;2023-04-06T01:39:51;101892.91;;;3.01;80.04
71772;BME280;59606;52.138;5.424;2023-04-06T01:42:17;101892.03;;;3.04;80.16
71772;BME280;59606;52.138;5.424;2023-04-06T01:44:44;101892.03;;;3.07;80.18
71772;BME280;59606;52.138;5.424;2023-04-06T01:47:11;101891.16;;;3.08;80.18
71772;BME280;59606;52.138;5.424;2023-04-06T01:49:37;101883.41;;;3.11;80.04
71772;BME280;59606;52.138;5.424;2023-04-06T01:52:04;101886.00;;;3.13;80.34
71772;BME280;59606;52.138;5.424;2023-04-06T01:54:30;101874.81;;;3.14;80.35
71772;BME280;59606;52.138;5.424;2023-04-06T01:56:57;101881.66;;;3.15;80.17
71772;BME280;59606;52.138;5.424;2023-04-06T01:59:23;101873.94;;;3.15;80.33
71772;BME280;59606;52.138;5.424;2023-04-06T02:01:50;101873.94;;;3.16;80.51
71772;BME280;59606;52.138;5.424;2023-04-06T02:04:17;101865.34;;;3.17;80.22
71772;BME280;59606;52.138;5.424;2023-04-06T02:06:43;101861.91;;;3.18;80.18
71772;BME280;59606;52.138;5.424;2023-04-06T02:09:10;101866.19;;;3.19;80.51
71772;BME280;59606;52.138;5.424;2023-04-06T02:11:36;101859.31;;;3.21;80.54
71772;BME280;59606;52.138;5.424;2023-04-06T02:14:03;101853.28;;;3.25;80.27
71772;BME280;59606;52.138;5.424;2023-04-06T02:16:29;101847.22;;;3.28;79.68
71772;BME280;59606;52.138;5.424;2023-04-06T02:18:56;101846.34;;;3.30;79.17
71772;BME280;59606;52.138;5.424;2023-04-06T02:21:22;101842.91;;;3.31;79.57
71772;BME280;59606;52.138;5.424;2023-04-06T02:23:49;101841.19;;;3.34;79.06
71772;BME280;59606;52.138;5.424;2023-04-06T02:26:15;101838.56;;;3.35;78.67
71772;BME280;59606;52.138;5.424;2023-04-06T02:28:42;101836.84;;;3.37;78.74
71772;BME280;59606;52.138;5.424;2023-04-06T02:31:08;101835.13;;;3.38;78.73
71772;BME280;59606;52.138;5.424;2023-04-06T02:33:35;101837.72;;;3.39;78.63
71772;BME280;59606;52.138;5.424;2023-04-06T02:36:01;101846.28;;;3.40;78.06
71772;BME280;59606;52.138;5.424;2023-04-06T02:38:28;101837.69;;;3.41;77.58
71772;BME280;59606;52.138;5.424;2023-04-06T02:40:54;101840.25;;;3.42;77.81
71772;BME280;59606;52.138;5.424;2023-04-06T02:43:21;101834.22;;;3.42;77.74
71772;BME280;59606;52.138;5.424;2023-04-06T02:45:47;101833.34;;;3.44;78.18
71772;BME280;59606;52.138;5.424;2023-04-06T02:48:14;101833.34;;;3.44;78.30
71772;BME280;59606;52.138;5.424;2023-04-06T02:50:44;101818.75;;;3.45;78.37
71772;BME280;59606;52.138;5.424;2023-04-06T02:53:10;101813.59;;;3.45;78.46
71772;BME280;59606;52.138;5.424;2023-04-06T02:55:37;101810.19;;;3.46;77.89
71772;BME280;59606;52.138;5.424;2023-04-06T02:58:03;101811.88;;;3.45;77.89
71772;BME280;59606;52.138;5.424;2023-04-06T03:00:29;101817.03;;;3.47;77.27
71772;BME280;59606;52.138;5.424;2023-04-06T03:02:56;101802.41;;;3.47;77.42
71772;BME280;59606;52.138;5.424;2023-04-06T03:05:23;101811.00;;;3.49;76.75
71772;BME280;59606;52.138;5.424;2023-04-06T03:07:49;101797.25;;;3.49;76.50
71772;BME280;59606;52.138;5.424;2023-04-06T03:10:16;101794.66;;;3.50;76.81
71772;BME280;59606;52.138;5.424;2023-04-06T03:12:42;101798.09;;;3.51;76.67
71772;BME280;59606;52.138;5.424;2023-04-06T03:15:09;101795.50;;;3.52;75.76
71772;BME280;59606;52.138;5.424;2023-04-06T03:17:36;101789.47;;;3.53;75.38
71772;BME280;59606;52.138;5.424;2023-04-06T03:20:03;101795.47;;;3.56;75.09
71772;BME280;59606;52.138;5.424;2023-04-06T03:22:30;101789.44;;;3.57;74.41
71772;BME280;59606;52.138;5.424;2023-04-06T03:24:56;101784.25;;;3.58;75.22
71772;BME280;59606;52.138;5.424;2023-04-06T03:27:23;101786.03;;;3.56;74.74
71772;BME280;59606;52.138;5.424;2023-04-06T03:29:49;101789.41;;;3.58;73.89
71772;BME280;59606;52.138;5.424;2023-04-06T03:32:16;101786.00;;;3.58;74.10
71772;BME280;59606;52.138;5.424;2023-04-06T03:34:43;101779.97;;;3.59;73.76
71772;BME280;59606;52.138;5.424;2023-04-06T03:37:09;101778.25;;;3.59;73.43
71772;BME280;59606;52.138;5.424;2023-04-06T03:39:36;101779.94;;;3.62;72.91
71772;BME280;59606;52.138;5.424;2023-04-06T03:42:03;101776.47;;;3.64;72.51
71772;BME280;59606;52.138;5.424;2023-04-06T03:44:29;101774.75;;;3.65;72.75
71772;BME280;59606;52.138;5.424;2023-04-06T03:46:56;101777.31;;;3.66;71.80
71772;BME280;59606;52.138;5.424;2023-04-06T03:49:22;101769.56;;;3.68;72.20
71772;BME280;59606;52.138;5.424;2023-04-06T03:51:49;101772.13;;;3.68;72.10
71772;BME280;59606;52.138;5.424;2023-04-06T03:54:15;101775.56;;;3.68;72.60
71772;BME280;59606;52.138;5.424;2023-04-06T03:56:42;101772.13;;;3.69;72.42
71772;BME280;59606;52.138;5.424;2023-04-06T03:59:08;101766.09;;;3.69;72.22
71772;BME280;59606;52.138;5.424;2023-04-06T04:01:35;101763.56;;;3.67;71.64
71772;BME280;59606;52.138;5.424;2023-04-06T04:04:02;101766.97;;;3.68;71.53
71772;BME280;59606;52.138;5.424;2023-04-06T04:06:32;101766.13;;;3.67;71.10
71772;BME280;59606;52.138;5.424;2023-04-06T04:09:02;101769.56;;;3.68;71.81
71772;BME280;59606;52.138;5.424;2023-04-06T04:11:29;101767.00;;;3.66;71.88
71772;BME280;59606;52.138;5.424;2023-04-06T04:13:55;101752.41;;;3.65;71.64
71772;BME280;59606;52.138;5.424;2023-04-06T04:16:22;101759.28;;;3.65;71.33
71772;BME280;59606;52.138;5.424;2023-04-06T04:18:48;101758.44;;;3.64;71.08
71772;BME280;59606;52.138;5.424;2023-04-06T04:21:15;101759.31;;;3.62;71.51
71772;BME280;59606;52.138;5.424;2023-04-06T04:23:41;101758.47;;;3.61;71.53
71772;BME280;59606;52.138;5.424;2023-04-06T04:26:08;101761.91;;;3.62;71.86
71772;BME280;59606;52.138;5.424;2023-04-06T04:28:34;101769.66;;;3.60;71.12
71772;BME280;59606;52.138;5.424;2023-04-06T04:31:01;101767.09;;;3.59;71.95
71772;BME280;59606;52.138;5.424;2023-04-06T04:33:27;101760.25;;;3.56;71.92
71772;BME280;59606;52.138;5.424;2023-04-06T04:35:54;101762.00;;;3.54;71.84
71772;BME280;59606;52.138;5.424;2023-04-06T04:38:21;101762.88;;;3.53;71.16
71772;BME280;59606;52.138;5.424;2023-04-06T04:40:48;101757.72;;;3.51;71.84
71772;BME280;59606;52.138;5.424;2023-04-06T04:43:15;101763.75;;;3.50;72.20
71772;BME280;59606;52.138;5.424;2023-04-06T04:45:41;101760.31;;;3.48;72.24
71772;BME280;59606;52.138;5.424;2023-04-06T04:48:08;101760.34;;;3.47;71.94
71772;BME280;59606;52.138;5.424;2023-04-06T04:50:35;101760.34;;;3.47;71.91
71772;BME280;59606;52.138;5.424;2023-04-06T04:53:02;101760.34;;;3.45;72.01
71772;BME280;59606;52.138;5.424;2023-04-06T04:55:31;101767.22;;;3.46;72.41
71772;BME280;59606;52.138;5.424;2023-04-06T04:57:58;101757.78;;;3.47;72.57
71772;BME280;59606;52.138;5.424;2023-04-06T05:00:24;101761.19;;;3.49;72.46
71772;BME280;59606;52.138;5.424;2023-04-06T05:02:52;101761.16;;;3.50;72.93
71772;BME280;59606;52.138;5.424;2023-04-06T05:05:18;101755.13;;;3.51;72.79
71772;BME280;59606;52.138;5.424;2023-04-06T05:07:45;101758.56;;;3.52;72.62
71772;BME280;59606;52.138;5.424;2023-04-06T05:10:11;101756.00;;;3.53;72.57
71772;BME280;59606;52.138;5.424;2023-04-06T05:12:38;101755.97;;;3.57;72.15
71772;BME280;59606;52.138;5.424;2023-04-06T05:15:05;101753.34;;;3.60;72.13
71772;BME280;59606;52.138;5.424;2023-04-06T05:17:32;101753.31;;;3.61;71.83
71772;BME280;59606;52.138;5.424;2023-04-06T05:19:58;101750.72;;;3.64;71.97
71772;BME280;59606;52.138;5.424;2023-04-06T05:22:25;101752.38;;;3.68;71.51
71772;BME280;59606;52.138;5.424;2023-04-06T05:24:51;101748.91;;;3.71;71.59
71772;BME280;59606;52.138;5.424;2023-04-06T05:27:18;101745.44;;;3.75;71.55
71772;BME280;59606;52.138;5.424;2023-04-06T05:29:44;101746.25;;;3.78;71.87
71772;BME280;59606;52.138;5.424;2023-04-06T05:32:12;101739.31;;;3.84;71.88
71772;BME280;59606;52.138;5.424;2023-04-06T05:34:40;101745.28;;;3.87;71.28
71772;BME280;59606;52.138;5.424;2023-04-06T05:37:06;101745.22;;;3.92;71.34
71772;BME280;59606;52.138;5.424;2023-04-06T05:39:32;101742.59;;;3.95;70.98
71772;BME280;59606;52.138;5.424;2023-04-06T05:42:03;101742.56;;;3.99;71.18
71772;BME280;59606;52.138;5.424;2023-04-06T05:44:32;101737.34;;;4.04;71.35
71772;BME280;59606;52.138;5.424;2023-04-06T05:46:58;101739.00;;;4.08;70.90
71772;BME280;59606;52.138;5.424;2023-04-06T05:49:25;101738.06;;;4.12;70.95
71772;BME280;59606;52.138;5.424;2023-04-06T05:51:51;101739.75;;;4.16;71.02
71772;BME280;59606;52.138;5.424;2023-04-06T05:54:17;101736.25;;;4.20;71.11
71772;BME280;59606;52.138;5.424;2023-04-06T05:56:48;101731.06;;;4.23;70.97
71772;BME280;59606;52.138;5.424;2023-04-06T05:59:14;101735.31;;;4.26;70.74
71772;BME280;59606;52.138;5.424;2023-04-06T06:01:42;101720.66;;;4.28;70.85
71772;BME280;59606;52.138;5.424;2023-04-06T06:04:09;101735.22;;;4.32;71.25
71772;BME280;59606;52.138;5.424;2023-04-06T06:06:35;101732.59;;;4.37;71.27
71772;BME280;59606;52.138;5.424;2023-04-06T06:09:03;101734.25;;;4.41;70.30
71772;BME280;59606;52.138;5.424;2023-04-06T06:11:29;101730.78;;;4.43;70.74
71772;BME280;59606;52.138;5.424;2023-04-06T06:13:56;101735.88;;;4.45;70.93
71772;BME280;59606;52.138;5.424;2023-04-06T06:16:23;101731.53;;;4.48;71.09
71772;BME280;59606;52.138;5.424;2023-04-06T06:18:49;101727.22;;;4.51;70.96
71772;BME280;59606;52.138;5.424;2023-04-06T06:21:16;101726.28;;;4.55;71.06
71772;BME280;59606;52.138;5.424;2023-04-06T06:23:43;101732.25;;;4.58;70.66
71772;BME280;59606;52.138;5.424;2023-04-06T06:26:09;101725.31;;;4.62;70.69
71772;BME280;59606;52.138;5.424;2023-04-06T06:28:37;101722.72;;;4.63;70.75
71772;BME280;59606;52.138;5.424;2023-04-06T06:31:03;101725.25;;;4.66;70.63
71772;BME280;59606;52.138;5.424;2023-04-06T06:33:30;101724.31;;;4.70;70.88
71772;BME280;59606;52.138;5.424;2023-04-06T06:35:56;101725.97;;;4.75;70.42
71772;BME280;59606;52.138;5.424;2023-04-06T06:38:23;101729.31;;;4.81;70.55
71772;BME280;59606;52.138;5.424;2023-04-06T06:40:49;101722.34;;;4.86;70.92
71772;BME280;59606;52.138;5.424;2023-04-06T06:43:15;101723.94;;;4.93;70.34
71772;BME280;59606;52.138;5.424;2023-04-06T06:45:42;101725.47;;;5.04;70.21
71772;BME280;59606;52.138;5.424;2023-04-06T06:48:09;101720.13;;;5.13;69.91
71772;BME280;59606;52.138;5.424;2023-04-06T06:50:35;101715.69;;;5.21;70.49
71772;BME280;59606;52.138;5.424;2023-04-06T06:53:02;101720.69;;;5.30;70.34
71772;BME280;59606;52.138;5.424;2023-04-06T06:55:28;101722.22;;;5.40;70.15
71772;BME280;59606;52.138;5.424;2023-04-06T06:57:55;101728.97;;;5.48;69.92
71772;BME280;59606;52.138;5.424;2023-04-06T07:00:21;101723.63;;;5.57;69.44
71772;BME280;59606;52.138;5.424;2023-04-06T07:02:48;101727.75;;;5.65;69.26
71772;BME280;59606;52.138;5.424;2023-04-06T07:05:15;101726.84;;;5.68;69.28
71772;BME280;59606;52.138;5.424;2023-04-06T07:07:49;101725.09;;;5.70;69.41
71772;BME280;59606;52.138;5.424;2023-04-06T07:10:16;101718.13;;;5.72;69.03
71772;BME280;59606;52.138;5.424;2023-04-06T07:12:42;101720.66;;;5.75;69.05
71772;BME280;59606;52.138;5.424;2023-04-06T07:15:09;101719.78;;;5.76;69.61
71772;BME280;59606;52.138;5.424;2023-04-06T07:17:35;101715.44;;;5.77;69.29
71772;BME280;59606;52.138;5.424;2023-04-06T07:20:03;101711.09;;;5.79;69.73
71772;BME280;59606;52.138;5.424;2023-04-06T07:22:30;101710.22;;;5.80;69.53
71772;BME280;59606;52.138;5.424;2023-04-06T07:24:56;101719.69;;;5.81;69.77
71772;BME280;59606;52.138;5.424;2023-04-06T07:27:25;101711.03;;;5.82;69.96
71772;BME280;59606;52.138;5.424;2023-04-06T07:29:52;101705.81;;;5.83;69.54
71772;BME280;59606;52.138;5.424;2023-04-06T07:32:18;101705.81;;;5.85;69.08
71772;BME280;59606;52.138;5.424;2023-04-06T07:34:44;101708.34;;;5.88;69.10
71772;BME280;59606;52.138;5.424;2023-04-06T07:37:11;101710.84;;;5.91;68.25
71772;BME280;59606;52.138;5.424;2023-04-06T07:39:37;101710.84;;;5.93;67.95
71772;BME280;59606;52.138;5.424;2023-04-06T07:42:04;101708.19;;;5.97;67.94
71772;BME280;59606;52.138;5.424;2023-04-06T07:44:30;101708.91;;;6.02;68.14
71772;BME280;59606;52.138;5.424;2023-04-06T07:46:57;101710.53;;;6.06;68.16
71772;BME280;59606;52.138;5.424;2023-04-06T07:49:23;101713.91;;;6.10;67.90
71772;BME280;59606;52.138;5.424;2023-04-06T07:51:50;101704.31;;;6.15;67.63
71772;BME280;59606;52.138;5.424;2023-04-06T07:54:16;101710.22;;;6.20;67.45
71772;BME280;59606;52.138;5.424;2023-04-06T07:56:43;101708.41;;;6.25;67.66
71772;BME280;59606;52.138;5.424;2023-04-06T07:59:09;101702.19;;;6.32;67.52
71772;BME280;59606;52.138;5.424;2023-04-06T08:01:37;101702.91;;;6.39;67.54
71772;BME280;59606;52.138;5.424;2023-04-06T08:04:04;101707.03;;;6.48;67.65
71772;BME280;59606;52.138;5.424;2023-04-06T08:06:30;101708.56;;;6.55;67.52
71772;BME280;59606;52.138;5.424;2023-04-06T08:08:57;101705.78;;;6.63;67.21
71772;BME280;59606;52.138;5.424;2023-04-06T08:11:23;101703.91;;;6.69;67.17
71772;BME280;59606;52.138;5.424;2023-04-06T08:13:50;101703.75;;;6.75;66.89
71772;BME280;59606;52.138;5.424;2023-04-06T08:16:17;101701.00;;;6.81;66.81
71772;BME280;59606;52.138;5.424;2023-04-06T08:18:44;101704.31;;;6.87;66.18
71772;BME280;59606;52.138;5.424;2023-04-06T08:21:11;101704.25;;;6.90;66.33
71772;BME280;59606;52.138;5.424;2023-04-06T08:23:37;101694.63;;;6.95;66.51
71772;BME280;59606;52.138;5.424;2023-04-06T08:26:04;101704.88;;;6.99;66.30
71772;BME280;59606;52.138;5.424;2023-04-06T08:28:30;101703.88;;;7.05;65.94
71772;BME280;59606;52.138;5.424;2023-04-06T08:30:57;101693.44;;;7.08;65.92
71772;BME280;59606;52.138;5.424;2023-04-06T08:33:23;101696.72;;;7.13;66.15
71772;BME280;59606;52.138;5.424;2023-04-06T08:35:50;101696.63;;;7.18;65.94
71772;BME280;59606;52.138;5.424;2023-04-06T08:38:16;101692.13;;;7.24;66.28
71772;BME280;59606;52.138;5.424;2023-04-06T08:40:43;101696.19;;;7.33;65.95
71772;BME280;59606;52.138;5.424;2023-04-06T08:43:13;101692.59;;;7.39;66.22
71772;BME280;59606;52.138;5.424;2023-04-06T08:45:41;101683.88;;;7.41;66.01
71772;BME280;59606;52.138;5.424;2023-04-06T08:48:08;101686.28;;;7.47;65.82
71772;BME280;59606;52.138;5.424;2023-04-06T08:50:36;101684.41;;;7.52;65.93
71772;BME280;59606;52.138;5.424;2023-04-06T08:53:05;101685.94;;;7.60;65.95
71772;BME280;59606;52.138;5.424;2023-04-06T08:55:32;101690.91;;;7.67;65.62
71772;BME280;59606;52.138;5.424;2023-04-06T08:58:00;101687.28;;;7.73;65.56
71772;BME280;59606;52.138;5.424;2023-04-06T09:02:55;101686.72;;;7.91;65.71
71772;BME280;59606;52.138;5.424;2023-04-06T09:05:24;101689.97;;;7.98;65.63
71772;BME280;59606;52.138;5.424;2023-04-06T09:07:51;101693.22;;;8.06;65.43
71772;BME280;59606;52.138;5.424;2023-04-06T09:10:18;101691.22;;;8.14;65.87
71772;BME280;59606;52.138;5.424;2023-04-06T09:12:44;101695.22;;;8.24;65.29
71772;BME280;59606;52.138;5.424;2023-04-06T09:15:19;101689.81;;;8.32;64.76
71772;BME280;59606;52.138;5.424;2023-04-06T09:17:49;101687.03;;;8.38;64.34
71772;BME280;59606;52.138;5.424;2023-04-06T09:20:22;101698.03;;;8.46;64.78
71772;BME280;59606;52.138;5.424;2023-04-06T09:22:52;101696.00;;;8.56;65.19
71772;BME280;59606;52.138;5.424;2023-04-06T09:25:20;101691.34;;;8.66;64.98
71772;BME280;59606;52.138;5.424;2023-04-06T09:27:59;101683.47;;;8.67;64.22
71772;BME280;59606;52.138;5.424;2023-04-06T09:30:26;101690.34;;;8.70;63.99
71772;BME280;59606;52.138;5.424;2023-04-06T09:32:55;101682.34;;;8.76;64.64
71772;BME280;59606;52.138;5.424;2023-04-06T09:35:23;101688.06;;;8.86;64.86
71772;BME280;59606;52.138;5.424;2023-04-06T09:37:51;101686.31;;;8.86;63.72
71772;BME280;59606;52.138;5.424;2023-04-06T09:40:18;101688.00;;;8.87;64.34
71772;BME280;59606;52.138;5.424;2023-04-06T09:42:46;101682.81;;;8.87;64.03
71772;BME280;59606;52.138;5.424;2023-04-06T09:45:14;101680.84;;;8.94;63.90
71772;BME280;59606;52.138;5.424;2023-04-06T09:47:44;101686.88;;;8.96;64.34
71772;BME280;59606;52.138;5.424;2023-04-06T09:50:13;101696.13;;;9.03;63.97
71772;BME280;59606;52.138;5.424;2023-04-06T09:52:48;101688.06;;;9.11;64.09
71772;BME280;59606;52.138;5.424;2023-04-06T09:55:23;101688.66;;;9.19;64.20
71772;BME280;59606;52.138;5.424;2023-04-06T09:57:57;101684.88;;;9.28;64.69
71772;BME280;59606;52.138;5.424;2023-04-06T10:00:28;101688.91;;;9.36;64.99
71772;BME280;59606;52.138;5.424;2023-04-06T10:05:51;101688.19;;;9.56;65.50
71772;BME280;59606;52.138;5.424;2023-04-06T10:08:18;101682.00;;;9.59;65.51
71772;BME280;59606;52.138;5.424;2023-04-06T10:10:46;101682.50;;;9.68;66.66
71772;BME280;59606;52.138;5.424;2023-04-06T10:13:13;101684.03;;;9.74;66.13
71772;BME280;59606;52.138;5.424;2023-04-06T10:15:41;101685.72;;;9.75;66.08
71772;BME280;59606;52.138;5.424;2023-04-06T10:18:08;101695.97;;;9.80;66.87
71772;BME280;59606;52.138;5.424;2023-04-06T10:20:51;101697.72;;;9.79;67.44
71772;BME280;59606;52.138;5.424;2023-04-06T10:23:22;101694.38;;;9.76;67.00
71772;BME280;59606;52.138;5.424;2023-04-06T10:25:58;101696.19;;;9.74;67.49
71772;BME280;59606;52.138;5.424;2023-04-06T10:28:26;101691.91;;;9.73;69.25
71772;BME280;59606;52.138;5.424;2023-04-06T10:30:57;101692.56;;;9.78;69.53
71772;BME280;59606;52.138;5.424;2023-04-06T10:33:24;101697.84;;;9.76;70.17
71772;BME280;59606;52.138;5.424;2023-04-06T10:35:51;101693.72;;;9.71;70.16
71772;BME280;59606;52.138;5.424;2023-04-06T10:38:19;101687.88;;;9.64;70.37
71772;BME280;59606;52.138;5.424;2023-04-06T10:40:50;101686.53;;;9.54;71.02
71772;BME280;59606;52.138;5.424;2023-04-06T10:43:21;101680.75;;;9.45;73.05
71772;BME280;59606;52.138;5.424;2023-04-06T10:45:55;101685.38;;;9.37;74.40
71772;BME280;59606;52.138;5.424;2023-04-06T10:48:22;101692.28;;;9.38;76.11
71772;BME280;59606;52.138;5.424;2023-04-06T10:50:52;101686.31;;;9.36;75.76
71772;BME280;59606;52.138;5.424;2023-04-06T10:53:22;101689.00;;;9.33;78.08
71772;BME280;59606;52.138;5.424;2023-04-06T10:55:50;101680.50;;;9.28;78.23
71772;BME280;59606;52.138;5.424;2023-04-06T10:58:17;101675.41;;;9.25;79.12
71772;BME280;59606;52.138;5.424;2023-04-06T11:00:48;101682.56;;;9.20;79.44
71772;BME280;59606;52.138;5.424;2023-04-06T11:03:16;101688.69;;;9.17;80.09
71772;BME280;59606;52.138;5.424;2023-04-06T11:05:48;101674.13;;;9.13;80.72
71772;BME280;59606;52.138;5.424;2023-04-06T11:08:30;101677.94;;;9.03;80.92
71772;BME280;59606;52.138;5.424;2023-04-06T11:11:17;101676.25;;;9.02;82.18
71772;BME280;59606;52.138;5.424;2023-04-06T11:13:47;101678.97;;;8.99;82.55
71772;BME280;59606;52.138;5.424;2023-04-06T11:18:53;101669.56;;;8.95;83.41
71772;BME280;59606;52.138;5.424;2023-04-06T11:21:30;101674.59;;;9.00;84.18
71772;BME280;59606;52.138;5.424;2023-04-06T11:24:24;101662.56;;;8.97;84.46
71772;BME280;59606;52.138;5.424;2023-04-06T11:26:54;101666.09;;;8.94;84.83
71772;BME280;59606;52.138;5.424;2023-04-06T11:29:23;101660.78;;;8.99;85.77
71772;BME280;59606;52.138;5.424;2023-04-06T11:31:51;101666.75;;;9.01;85.27
71772;BME280;59606;52.138;5.424;2023-04-06T11:34:19;101651.94;;;9.03;85.46
71772;BME280;59606;52.138;5.424;2023-04-06T11:36:47;101657.09;;;9.05;85.36
71772;BME280;59606;52.138;5.424;2023-04-06T11:39:20;101657.94;;;9.05;86.11
71772;BME280;59606;52.138;5.424;2023-04-06T11:41:48;101658.63;;;9.10;86.46
71772;BME280;59606;52.138;5.424;2023-04-06T11:44:15;101656.03;;;9.10;85.77
71772;BME280;59606;52.138;5.424;2023-04-06T11:46:51;101659.69;;;9.05;85.90
71772;BME280;59606;52.138;5.424;2023-04-06T11:49:18;101646.59;;;9.08;85.24
71772;BME280;59606;52.138;5.424;2023-04-06T11:51:45;101641.50;;;9.05;85.44
71772;BME280;59606;52.138;5.424;2023-04-06T11:54:12;101639.47;;;9.13;85.86
71772;BME280;59606;52.138;5.424;2023-04-06T11:56:39;101644.41;;;9.20;85.23
71772;BME280;59606;52.138;5.424;2023-04-06T11:59:06;101640.09;;;9.19;85.20
71772;BME280;59606;52.138;5.424;2023-04-06T12:01:32;101632.13;;;9.24;84.98
71772;BME280;59606;52.138;5.424;2023-04-06T12:04:04;101634.63;;;9.27;85.82
71772;BME280;59606;52.138;5.424;2023-04-06T12:06:31;101637.97;;;9.31;85.50
71772;BME280;59606;52.138;5.424;2023-04-06T12:08:57;101640.63;;;9.29;85.19
71772;BME280;59606;52.138;5.424;2023-04-06T12:11:24;101626.09;;;9.24;84.86
71772;BME280;59606;52.138;5.424;2023-04-06T12:13:51;101634.50;;;9.30;84.55
71772;BME280;59606;52.138;5.424;2023-04-06T12:16:17;101627.00;;;9.23;84.74
71772;BME280;59606;52.138;5.424;2023-04-06T12:18:45;101625.34;;;9.20;85.29
71772;BME280;59606;52.138;5.424;2023-04-06T12:21:12;101626.28;;;9.19;85.30
71772;BME280;59606;52.138;5.424;2023-04-06T12:23:38;101619.25;;;9.21;85.79
71772;BME280;59606;52.138;5.424;2023-04-06T12:26:05;101619.88;;;9.28;86.46
71772;BME280;59606;52.138;5.424;2023-04-06T12:28:38;101624.84;;;9.34;86.34
71772;BME280;59606;52.138;5.424;2023-04-06T12:31:05;101621.34;;;9.35;86.15
71772;BME280;59606;52.138;5.424;2023-04-06T12:33:32;101616.09;;;9.36;86.63
71772;BME280;59606;52.138;5.424;2023-04-06T12:35:58;101620.59;;;9.31;86.15
71772;BME280;59606;52.138;5.424;2023-04-06T12:38:24;101615.50;;;9.28;86.36
71772;BME280;59606;52.138;5.424;2023-04-06T12:40:51;101615.41;;;9.31;87.18
71772;BME280;59606;52.138;5.424;2023-04-06T12:43:17;101610.94;;;9.35;86.57
71772;BME280;59606;52.138;5.424;2023-04-06T12:45:44;101607.16;;;9.20;86.32
71772;BME280;59606;52.138;5.424;2023-04-06T12:48:10;101616.53;;;9.24;86.96
71772;BME280;59606;52.138;5.424;2023-04-06T12:50:37;101611.28;;;9.26;86.22
71772;BME280;59606;52.138;5.424;2023-04-06T12:53:04;101607.88;;;9.24;86.48
71772;BME280;59606;52.138;5.424;2023-04-06T12:55:30;101602.81;;;9.20;86.68
71772;BME280;59606;52.138;5.424;2023-04-06T12:58:00;101600.13;;;9.22;86.88
71772;BME280;59606;52.138;5.424;2023-04-06T13:00:27;101594.94;;;9.22;87.10
71772;BME280;59606;52.138;5.424;2023-04-06T13:02:53;101589.00;;;9.18;86.92
71772;BME280;59606;52.138;5.424;2023-04-06T13:05:20;101588.84;;;9.23;87.26
71772;BME280;59606;52.138;5.424;2023-04-06T13:07:47;101588.88;;;9.21;87.05
71772;BME280;59606;52.138;5.424;2023-04-06T13:10:13;101590.66;;;9.21;87.25